sensor_id;sensor_type;location;lat;lon;timestamp;pressure;altitude;pressure_sealevel;temperature;humidity
64189;BME280;50493;50.970;10.082;2023-02-20T00:00:54;100128.97;;;6.05;77.57
64189;BME280;50493;50.970;10.082;2023-02-20T00:03:20;100130.13;;;6.41;76.16
64189;BME280;50493;50.970;10.082;2023-02-20T00:05:45;100117.88;;;6.23;76.39
64189;BME280;50493;50.970;10.082;2023-02-20T00:08:12;100116.50;;;6.74;74.22
64189;BME280;50493;50.970;10.082;2023-02-20T00:10:37;100112.16;;;6.78;73.59
64189;BME280;50493;50.970;10.082;2023-02-20T00:13:02;100111.19;;;6.56;74.57
64189;BME280;50493;50.970;10.082;2023-02-20T00:15:28;100115.66;;;6.85;71.37
64189;BME280;50493;50.970;10.082;2023-02-20T00:17:53;100120.00;;;6.80;72.49
64189;BME280;50493;50.970;10.082;2023-02-20T00:20:21;100123.44;;;6.78;74.06
64189;BME280;50493;50.970;10.082;2023-02-20T00:22:47;100113.25;;;7.22;71.49
64189;BME280;50493;50.970;10.082;2023-02-20T00:25:16;100100.13;;;6.95;72.64
64189;BME280;50493;50.970;10.082;2023-02-20T00:27:41;100100.22;;;7.14;69.82
64189;BME280;50493;50.970;10.082;2023-02-20T00:30:11;100101.06;;;7.05;71.27
64189;BME280;50493;50.970;10.082;2023-02-20T00:32:37;100096.78;;;7.26;72.33
64189;BME280;50493;50.970;10.082;2023-02-20T00:35:03;100088.97;;;7.21;70.58
64189;BME280;50493;50.970;10.082;2023-02-20T00:37:28;100098.50;;;7.24;71.54
64189;BME280;50493;50.970;10.082;2023-02-20T00:39:53;100096.72;;;7.03;72.21
64189;BME280;50493;50.970;10.082;2023-02-20T00:42:20;100084.53;;;6.92;69.21
64189;BME280;50493;50.970;10.082;2023-02-20T00:44:45;100087.22;;;7.17;70.98
64189;BME280;50493;50.970;10.082;2023-02-20T00:47:10;100098.41;;;7.02;71.52
64189;BME280;50493;50.970;10.082;2023-02-20T00:49:36;100093.25;;;7.05;69.73
64189;BME280;50493;50.970;10.082;2023-02-20T00:52:01;100089.78;;;7.08;71.89
64189;BME280;50493;50.970;10.082;2023-02-20T00:54:27;100099.28;;;6.97;72.14
64189;BME280;50493;50.970;10.082;2023-02-20T00:56:52;100099.25;;;6.92;72.51
64189;BME280;50493;50.970;10.082;2023-02-20T00:59:19;100098.47;;;7.13;68.54
64189;BME280;50493;50.970;10.082;2023-02-20T01:01:44;100096.63;;;6.89;71.39
64189;BME280;50493;50.970;10.082;2023-02-20T01:04:09;100095.84;;;7.05;69.00
64189;BME280;50493;50.970;10.082;2023-02-20T01:06:35;100108.91;;;7.19;70.45
64189;BME280;50493;50.970;10.082;2023-02-20T01:09:00;100101.06;;;7.05;67.94
64189;BME280;50493;50.970;10.082;2023-02-20T01:11:25;100081.97;;;7.02;67.81
64189;BME280;50493;50.970;10.082;2023-02-20T01:13:50;100087.97;;;6.91;69.33
64189;BME280;50493;50.970;10.082;2023-02-20T01:16:17;100102.53;;;6.60;72.29
64189;BME280;50493;50.970;10.082;2023-02-20T01:18:43;100094.06;;;6.97;67.07
64189;BME280;50493;50.970;10.082;2023-02-20T01:21:08;100093.09;;;6.74;66.89
64189;BME280;50493;50.970;10.082;2023-02-20T01:23:33;100095.81;;;6.99;66.81
64189;BME280;50493;50.970;10.082;2023-02-20T01:25:59;100092.28;;;6.82;70.66
64189;BME280;50493;50.970;10.082;2023-02-20T01:28:24;100093.97;;;6.73;71.96
64189;BME280;50493;50.970;10.082;2023-02-20T01:30:49;100088.81;;;6.89;67.07
64189;BME280;50493;50.970;10.082;2023-02-20T01:33:16;100088.69;;;6.58;71.29
64189;BME280;50493;50.970;10.082;2023-02-20T01:35:41;100089.50;;;6.49;68.60
64189;BME280;50493;50.970;10.082;2023-02-20T01:38:06;100082.56;;;6.50;69.46
64189;BME280;50493;50.970;10.082;2023-02-20T01:40:33;100085.06;;;6.37;69.09
64189;BME280;50493;50.970;10.082;2023-02-20T01:42:59;100092.84;;;6.34;68.72
64189;BME280;50493;50.970;10.082;2023-02-20T01:45:32;100085.56;;;5.87;72.77
64189;BME280;50493;50.970;10.082;2023-02-20T01:47:58;100078.84;;;6.12;69.87
64189;BME280;50493;50.970;10.082;2023-02-20T01:50:28;100082.31;;;6.14;66.01
64189;BME280;50493;50.970;10.082;2023-02-20T01:52:59;100085.00;;;6.26;70.37
64189;BME280;50493;50.970;10.082;2023-02-20T01:55:29;100089.19;;;6.06;67.12
64189;BME280;50493;50.970;10.082;2023-02-20T01:57:59;100076.06;;;5.89;71.24
64189;BME280;50493;50.970;10.082;2023-02-20T02:00:27;100071.88;;;6.06;67.18
64189;BME280;50493;50.970;10.082;2023-02-20T02:02:56;100071.94;;;6.14;66.94
64189;BME280;50493;50.970;10.082;2023-02-20T02:05:25;100078.03;;;6.21;66.47
64189;BME280;50493;50.970;10.082;2023-02-20T02:07:53;100074.44;;;6.03;67.16
64189;BME280;50493;50.970;10.082;2023-02-20T02:10:23;100073.22;;;5.59;67.41
64189;BME280;50493;50.970;10.082;2023-02-20T02:12:52;100075.78;;;5.58;69.42
64189;BME280;50493;50.970;10.082;2023-02-20T02:15:20;100072.78;;;6.12;70.01
64189;BME280;50493;50.970;10.082;2023-02-20T02:18:00;100065.72;;;5.92;72.70
64189;BME280;50493;50.970;10.082;2023-02-20T02:24:04;100079.53;;;5.91;70.80
64189;BME280;50493;50.970;10.082;2023-02-20T02:27:02;100076.19;;;6.04;64.72
64189;BME280;50493;50.970;10.082;2023-02-20T02:29:44;100067.47;;;5.93;69.77
64189;BME280;50493;50.970;10.082;2023-02-20T02:35:27;100065.56;;;5.76;68.15
64189;BME280;50493;50.970;10.082;2023-02-20T02:38:02;100049.06;;;5.65;70.50
64189;BME280;50493;50.970;10.082;2023-02-20T02:40:39;100050.06;;;5.80;68.62
64189;BME280;50493;50.970;10.082;2023-02-20T02:43:08;100054.16;;;5.56;73.98
64189;BME280;50493;50.970;10.082;2023-02-20T02:45:42;100046.38;;;5.56;68.85
64189;BME280;50493;50.970;10.082;2023-02-20T02:48:15;100022.78;;;5.31;70.69
64189;BME280;50493;50.970;10.082;2023-02-20T02:50:45;100021.13;;;5.42;70.83
64189;BME280;50493;50.970;10.082;2023-02-20T02:53:14;100038.44;;;5.43;72.31
64189;BME280;50493;50.970;10.082;2023-02-20T02:55:39;100037.53;;;5.38;71.93
64189;BME280;50493;50.970;10.082;2023-02-20T02:58:05;100029.88;;;5.48;71.70
64189;BME280;50493;50.970;10.082;2023-02-20T03:00:35;100028.28;;;5.62;70.99
64189;BME280;50493;50.970;10.082;2023-02-20T03:03:06;100035.25;;;5.68;70.20
64189;BME280;50493;50.970;10.082;2023-02-20T03:05:37;100043.00;;;5.66;71.62
64189;BME280;50493;50.970;10.082;2023-02-20T03:08:18;100052.41;;;5.53;72.47
64189;BME280;50493;50.970;10.082;2023-02-20T03:10:57;100049.06;;;5.70;71.36
64189;BME280;50493;50.970;10.082;2023-02-20T03:13:25;100044.13;;;5.95;68.40
64189;BME280;50493;50.970;10.082;2023-02-20T03:16:13;100043.97;;;5.81;66.68
64189;BME280;50493;50.970;10.082;2023-02-20T03:18:40;100042.03;;;5.56;68.50
64189;BME280;50493;50.970;10.082;2023-02-20T03:21:10;100037.00;;;5.73;68.72
64189;BME280;50493;50.970;10.082;2023-02-20T03:23:40;100033.66;;;5.85;69.89
64189;BME280;50493;50.970;10.082;2023-02-20T03:26:10;100028.69;;;6.15;62.54
64189;BME280;50493;50.970;10.082;2023-02-20T03:28:45;100023.03;;;5.56;72.22
64189;BME280;50493;50.970;10.082;2023-02-20T03:31:14;100025.03;;;5.88;66.96
64189;BME280;50493;50.970;10.082;2023-02-20T03:33:44;100020.59;;;5.71;69.42
64189;BME280;50493;50.970;10.082;2023-02-20T03:36:34;100024.19;;;5.92;64.56
64189;BME280;50493;50.970;10.082;2023-02-20T03:39:24;100025.06;;;5.94;67.31
64189;BME280;50493;50.970;10.082;2023-02-20T03:42:11;100029.94;;;5.54;73.54
64189;BME280;50493;50.970;10.082;2023-02-20T03:44:57;100030.53;;;5.28;74.08
64189;BME280;50493;50.970;10.082;2023-02-20T03:47:26;100025.81;;;4.91;75.09
64189;BME280;50493;50.970;10.082;2023-02-20T03:49:53;100018.41;;;5.29;67.87
64189;BME280;50493;50.970;10.082;2023-02-20T03:52:38;100012.19;;;5.09;69.72
64189;BME280;50493;50.970;10.082;2023-02-20T03:55:05;100032.50;;;4.74;74.43
64189;BME280;50493;50.970;10.082;2023-02-20T03:57:37;100021.22;;;4.70;72.74
64189;BME280;50493;50.970;10.082;2023-02-20T04:00:07;100028.09;;;4.68;73.84
64189;BME280;50493;50.970;10.082;2023-02-20T04:02:37;100015.22;;;4.73;74.07
64189;BME280;50493;50.970;10.082;2023-02-20T04:05:06;100023.78;;;4.67;78.17
64189;BME280;50493;50.970;10.082;2023-02-20T04:07:37;100028.06;;;4.65;77.21
64189;BME280;50493;50.970;10.082;2023-02-20T04:10:10;100030.34;;;5.11;69.59
64189;BME280;50493;50.970;10.082;2023-02-20T04:12:41;100033.03;;;5.20;68.94
64189;BME280;50493;50.970;10.082;2023-02-20T04:15:09;100031.31;;;5.22;69.55
64189;BME280;50493;50.970;10.082;2023-02-20T04:17:39;100026.47;;;5.56;66.22
64189;BME280;50493;50.970;10.082;2023-02-20T04:20:05;100038.31;;;5.28;70.96
64189;BME280;50493;50.970;10.082;2023-02-20T04:22:34;100039.84;;;5.11;74.88
64189;BME280;50493;50.970;10.082;2023-02-20T04:25:08;100032.22;;;5.27;70.86
64189;BME280;50493;50.970;10.082;2023-02-20T04:27:36;100032.22;;;5.26;71.64
64189;BME280;50493;50.970;10.082;2023-02-20T04:30:02;100009.50;;;5.03;72.92
64189;BME280;50493;50.970;10.082;2023-02-20T04:32:27;100007.13;;;5.23;73.43
64189;BME280;50493;50.970;10.082;2023-02-20T04:34:53;100008.28;;;5.52;67.58
64189;BME280;50493;50.970;10.082;2023-02-20T04:37:18;99999.66;;;5.53;71.71
64189;BME280;50493;50.970;10.082;2023-02-20T04:39:44;99993.63;;;5.54;67.92
64189;BME280;50493;50.970;10.082;2023-02-20T04:42:12;99998.09;;;5.73;66.29
64189;BME280;50493;50.970;10.082;2023-02-20T04:44:37;100011.00;;;5.66;68.97
64189;BME280;50493;50.970;10.082;2023-02-20T04:47:06;100002.28;;;5.54;71.12
64189;BME280;50493;50.970;10.082;2023-02-20T04:49:31;100000.63;;;5.64;66.90
64189;BME280;50493;50.970;10.082;2023-02-20T04:51:57;100007.53;;;5.62;71.18
64189;BME280;50493;50.970;10.082;2023-02-20T04:54:23;100010.88;;;5.52;68.09
64189;BME280;50493;50.970;10.082;2023-02-20T04:56:48;100018.84;;;5.73;70.52
64189;BME280;50493;50.970;10.082;2023-02-20T04:59:15;100024.94;;;5.77;68.36
64189;BME280;50493;50.970;10.082;2023-02-20T05:01:40;100020.59;;;5.71;72.02
64189;BME280;50493;50.970;10.082;2023-02-20T05:04:07;100019.16;;;6.14;68.40
64189;BME280;50493;50.970;10.082;2023-02-20T05:06:32;100024.28;;;6.01;65.33
64189;BME280;50493;50.970;10.082;2023-02-20T05:08:58;100021.84;;;6.31;62.51
64189;BME280;50493;50.970;10.082;2023-02-20T05:11:23;100027.94;;;6.37;62.70
64189;BME280;50493;50.970;10.082;2023-02-20T05:13:48;100034.03;;;6.36;66.66
64189;BME280;50493;50.970;10.082;2023-02-20T05:16:15;100027.66;;;5.91;70.11
64189;BME280;50493;50.970;10.082;2023-02-20T05:18:40;100022.69;;;6.28;62.93
64189;BME280;50493;50.970;10.082;2023-02-20T05:21:06;100019.34;;;6.49;62.22
64189;BME280;50493;50.970;10.082;2023-02-20T05:23:50;100004.56;;;6.39;61.73
64189;BME280;50493;50.970;10.082;2023-02-20T05:26:17;99987.88;;;5.95;63.85
64189;BME280;50493;50.970;10.082;2023-02-20T05:28:43;100007.03;;;5.13;73.37
64189;BME280;50493;50.970;10.082;2023-02-20T05:31:09;99990.50;;;5.98;64.08
64189;BME280;50493;50.970;10.082;2023-02-20T05:33:36;99974.06;;;6.02;63.57
64189;BME280;50493;50.970;10.082;2023-02-20T05:36:02;99974.19;;;6.15;64.72
64189;BME280;50493;50.970;10.082;2023-02-20T05:38:27;99966.28;;;6.01;65.07
64189;BME280;50493;50.970;10.082;2023-02-20T05:40:53;99960.78;;;5.54;65.45
64189;BME280;50493;50.970;10.082;2023-02-20T05:43:18;99960.66;;;5.43;66.43
64189;BME280;50493;50.970;10.082;2023-02-20T05:45:43;99962.34;;;5.38;68.92
64189;BME280;50493;50.970;10.082;2023-02-20T05:48:10;99959.84;;;5.48;65.98
64189;BME280;50493;50.970;10.082;2023-02-20T05:50:37;99947.88;;;5.61;66.13
64189;BME280;50493;50.970;10.082;2023-02-20T05:53:02;99944.06;;;5.23;70.73
64189;BME280;50493;50.970;10.082;2023-02-20T05:55:28;99935.75;;;5.63;66.62
64189;BME280;50493;50.970;10.082;2023-02-20T05:57:55;99937.13;;;5.19;68.67
64189;BME280;50493;50.970;10.082;2023-02-20T06:00:20;99933.69;;;5.24;69.78
64189;BME280;50493;50.970;10.082;2023-02-20T06:02:46;99940.66;;;5.27;70.46
64189;BME280;50493;50.970;10.082;2023-02-20T06:05:13;99933.09;;;5.52;66.60
64189;BME280;50493;50.970;10.082;2023-02-20T06:07:41;99928.75;;;5.51;67.04
64189;BME280;50493;50.970;10.082;2023-02-20T06:10:07;99933.78;;;5.35;70.32
64189;BME280;50493;50.970;10.082;2023-02-20T06:12:33;99937.41;;;5.51;67.28
64189;BME280;50493;50.970;10.082;2023-02-20T06:14:58;99930.22;;;5.21;68.55
64189;BME280;50493;50.970;10.082;2023-02-20T06:17:23;99935.69;;;5.52;66.78
64189;BME280;50493;50.970;10.082;2023-02-20T06:19:49;99927.09;;;5.59;66.17
64189;BME280;50493;50.970;10.082;2023-02-20T06:22:15;99930.94;;;5.09;67.53
64189;BME280;50493;50.970;10.082;2023-02-20T06:24:45;99918.72;;;4.94;69.88
64189;BME280;50493;50.970;10.082;2023-02-20T06:27:11;99923.22;;;4.31;71.11
64189;BME280;50493;50.970;10.082;2023-02-20T06:29:36;99929.41;;;4.44;74.14
64189;BME280;50493;50.970;10.082;2023-02-20T06:32:02;99928.22;;;4.90;71.34
64189;BME280;50493;50.970;10.082;2023-02-20T06:34:27;99940.72;;;4.53;74.56
64189;BME280;50493;50.970;10.082;2023-02-20T06:36:57;99934.47;;;4.34;75.28
64189;BME280;50493;50.970;10.082;2023-02-20T06:39:23;99932.38;;;4.76;69.67
64189;BME280;50493;50.970;10.082;2023-02-20T06:41:50;99927.78;;;4.52;73.94
64189;BME280;50493;50.970;10.082;2023-02-20T06:44:15;99927.31;;;4.88;70.18
64189;BME280;50493;50.970;10.082;2023-02-20T06:46:41;99919.84;;;5.21;68.97
64189;BME280;50493;50.970;10.082;2023-02-20T06:49:06;99919.28;;;5.57;67.79
64189;BME280;50493;50.970;10.082;2023-02-20T06:51:33;99922.59;;;5.42;66.84
64189;BME280;50493;50.970;10.082;2023-02-20T06:53:59;99922.50;;;5.29;70.94
64189;BME280;50493;50.970;10.082;2023-02-20T06:56:26;99927.97;;;5.63;68.81
64189;BME280;50493;50.970;10.082;2023-02-20T06:58:54;99925.94;;;5.27;68.55
64189;BME280;50493;50.970;10.082;2023-02-20T07:01:22;99924.63;;;5.81;66.04
64189;BME280;50493;50.970;10.082;2023-02-20T07:03:48;99930.56;;;5.61;69.43
64189;BME280;50493;50.970;10.082;2023-02-20T07:06:14;99937.16;;;5.25;68.79
64189;BME280;50493;50.970;10.082;2023-02-20T07:08:39;99930.38;;;5.41;67.58
64189;BME280;50493;50.970;10.082;2023-02-20T07:11:05;99935.50;;;5.33;67.30
64189;BME280;50493;50.970;10.082;2023-02-20T07:13:31;99939.13;;;5.51;66.87
64189;BME280;50493;50.970;10.082;2023-02-20T07:15:58;99932.97;;;5.38;67.20
64189;BME280;50493;50.970;10.082;2023-02-20T07:18:23;99942.41;;;5.30;66.77
64189;BME280;50493;50.970;10.082;2023-02-20T07:20:51;99943.13;;;5.16;68.09
64189;BME280;50493;50.970;10.082;2023-02-20T07:23:16;99933.53;;;5.06;69.64
64189;BME280;50493;50.970;10.082;2023-02-20T07:25:42;99939.75;;;5.26;67.91
64189;BME280;50493;50.970;10.082;2023-02-20T07:28:08;99940.66;;;5.30;67.00
64189;BME280;50493;50.970;10.082;2023-02-20T07:30:33;99938.06;;;5.27;67.74
64189;BME280;50493;50.970;10.082;2023-02-20T07:33:00;99923.56;;;5.48;66.67
64189;BME280;50493;50.970;10.082;2023-02-20T07:35:25;99927.78;;;5.38;66.57
64189;BME280;50493;50.970;10.082;2023-02-20T07:37:51;99920.22;;;5.64;65.53
64189;BME280;50493;50.970;10.082;2023-02-20T07:40:16;99925.44;;;5.70;68.22
64189;BME280;50493;50.970;10.082;2023-02-20T07:42:42;99929.88;;;5.85;67.21
64189;BME280;50493;50.970;10.082;2023-02-20T07:45:08;99919.59;;;6.04;64.62
64189;BME280;50493;50.970;10.082;2023-02-20T07:47:34;99920.63;;;6.38;63.74
64189;BME280;50493;50.970;10.082;2023-02-20T07:50:01;99922.38;;;6.39;65.32
64189;BME280;50493;50.970;10.082;2023-02-20T07:52:26;99927.22;;;5.81;67.29
64189;BME280;50493;50.970;10.082;2023-02-20T07:54:52;99931.84;;;6.34;62.67
64189;BME280;50493;50.970;10.082;2023-02-20T07:57:17;99926.63;;;6.26;64.28
64189;BME280;50493;50.970;10.082;2023-02-20T07:59:42;99923.06;;;6.03;63.63
64189;BME280;50493;50.970;10.082;2023-02-20T08:02:08;99922.28;;;6.22;65.09
64189;BME280;50493;50.970;10.082;2023-02-20T08:04:33;99917.13;;;6.27;62.61
64189;BME280;50493;50.970;10.082;2023-02-20T08:07:00;99913.69;;;6.31;61.66
64189;BME280;50493;50.970;10.082;2023-02-20T08:09:25;99913.75;;;6.56;62.15
64189;BME280;50493;50.970;10.082;2023-02-20T08:11:50;99918.78;;;6.09;64.25
64189;BME280;50493;50.970;10.082;2023-02-20T08:14:16;99918.91;;;6.47;61.88
64189;BME280;50493;50.970;10.082;2023-02-20T08:16:41;99907.72;;;6.61;63.37
64189;BME280;50493;50.970;10.082;2023-02-20T08:19:07;99908.66;;;6.84;60.71
64189;BME280;50493;50.970;10.082;2023-02-20T08:21:32;99910.34;;;6.85;60.53
64189;BME280;50493;50.970;10.082;2023-02-20T08:23:59;99912.03;;;6.67;62.63
64189;BME280;50493;50.970;10.082;2023-02-20T08:26:24;99915.47;;;6.44;62.83
64189;BME280;50493;50.970;10.082;2023-02-20T08:28:50;99903.38;;;6.59;62.55
64189;BME280;50493;50.970;10.082;2023-02-20T08:31:16;99904.19;;;6.41;62.88
64189;BME280;50493;50.970;10.082;2023-02-20T08:33:41;99898.91;;;6.21;64.82
64189;BME280;50493;50.970;10.082;2023-02-20T08:36:07;99893.03;;;6.77;62.60
64189;BME280;50493;50.970;10.082;2023-02-20T08:38:34;99889.56;;;6.69;62.18
64189;BME280;50493;50.970;10.082;2023-02-20T08:41:03;99886.00;;;6.41;63.74
64189;BME280;50493;50.970;10.082;2023-02-20T08:43:29;99879.22;;;7.00;61.92
64189;BME280;50493;50.970;10.082;2023-02-20T08:45:54;99879.22;;;7.37;60.69
64189;BME280;50493;50.970;10.082;2023-02-20T08:48:20;99874.84;;;6.76;60.93
64189;BME280;50493;50.970;10.082;2023-02-20T08:50:45;99879.97;;;6.50;62.57
64189;BME280;50493;50.970;10.082;2023-02-20T08:53:11;99872.22;;;6.65;62.89
64189;BME280;50493;50.970;10.082;2023-02-20T08:55:36;99872.25;;;6.93;61.05
64189;BME280;50493;50.970;10.082;2023-02-20T08:58:03;99869.66;;;6.90;63.59
64189;BME280;50493;50.970;10.082;2023-02-20T09:00:29;99867.06;;;6.96;60.30
64189;BME280;50493;50.970;10.082;2023-02-20T09:02:54;99865.34;;;6.80;61.57
64189;BME280;50493;50.970;10.082;2023-02-20T09:05:20;99869.69;;;7.10;60.81
64189;BME280;50493;50.970;10.082;2023-02-20T09:07:45;99868.81;;;7.00;62.19
64189;BME280;50493;50.970;10.082;2023-02-20T09:10:11;99886.13;;;6.92;63.76
64189;BME280;50493;50.970;10.082;2023-02-20T09:12:36;99891.31;;;7.10;62.90
64189;BME280;50493;50.970;10.082;2023-02-20T09:15:05;99890.50;;;7.44;60.22
64189;BME280;50493;50.970;10.082;2023-02-20T09:17:31;99886.13;;;7.21;60.89
64189;BME280;50493;50.970;10.082;2023-02-20T09:19:57;99890.47;;;7.64;61.14
64189;BME280;50493;50.970;10.082;2023-02-20T09:22:23;99885.00;;;8.48;58.34
64189;BME280;50493;50.970;10.082;2023-02-20T09:24:49;99887.66;;;8.38;57.67
64189;BME280;50493;50.970;10.082;2023-02-20T09:27:14;99885.19;;;8.06;57.53
64189;BME280;50493;50.970;10.082;2023-02-20T09:29:40;99875.34;;;8.65;56.86
64189;BME280;50493;50.970;10.082;2023-02-20T09:32:08;99880.88;;;7.94;57.88
64189;BME280;50493;50.970;10.082;2023-02-20T09:34:34;99869.03;;;9.03;55.12
64189;BME280;50493;50.970;10.082;2023-02-20T09:36:59;99868.59;;;9.53;54.45
64189;BME280;50493;50.970;10.082;2023-02-20T09:39:24;99854.53;;;9.71;54.08
64189;BME280;50493;50.970;10.082;2023-02-20T09:42:05;99839.44;;;10.64;51.85
64189;BME280;50493;50.970;10.082;2023-02-20T09:44:37;99847.66;;;10.38;50.12
64189;BME280;50493;50.970;10.082;2023-02-20T09:47:22;99835.09;;;10.62;49.42
64189;BME280;50493;50.970;10.082;2023-02-20T09:49:51;99829.81;;;10.65;50.89
64189;BME280;50493;50.970;10.082;2023-02-20T09:52:17;99829.63;;;10.79;51.06
64189;BME280;50493;50.970;10.082;2023-02-20T09:54:46;99836.91;;;10.60;50.62
64189;BME280;50493;50.970;10.082;2023-02-20T09:57:18;99827.41;;;10.53;49.52
64189;BME280;50493;50.970;10.082;2023-02-20T09:59:47;99821.16;;;11.18;50.52
64189;BME280;50493;50.970;10.082;2023-02-20T10:02:16;99826.63;;;12.41;48.00
64189;BME280;50493;50.970;10.082;2023-02-20T10:04:45;99836.28;;;12.39;45.75
64189;BME280;50493;50.970;10.082;2023-02-20T10:07:16;99829.06;;;12.49;45.72
64189;BME280;50493;50.970;10.082;2023-02-20T10:09:45;99829.19;;;12.44;44.46
64189;BME280;50493;50.970;10.082;2023-02-20T10:12:17;99816.44;;;14.03;42.97
64189;BME280;50493;50.970;10.082;2023-02-20T10:17:43;99810.03;;;14.42;41.04
64189;BME280;50493;50.970;10.082;2023-02-20T10:20:12;99801.25;;;14.71;38.83
64189;BME280;50493;50.970;10.082;2023-02-20T10:22:48;99803.50;;;13.64;46.11
64189;BME280;50493;50.970;10.082;2023-02-20T10:25:22;99798.97;;;14.59;42.87
64189;BME280;50493;50.970;10.082;2023-02-20T10:27:53;99798.00;;;14.90;38.39
64189;BME280;50493;50.970;10.082;2023-02-20T10:30:24;99797.06;;;14.92;38.96
64189;BME280;50493;50.970;10.082;2023-02-20T10:32:56;99781.56;;;14.28;43.73
64189;BME280;50493;50.970;10.082;2023-02-20T10:35:25;99773.91;;;14.75;39.80
64189;BME280;50493;50.970;10.082;2023-02-20T10:37:57;99776.97;;;15.65;39.28
64189;BME280;50493;50.970;10.082;2023-02-20T10:40:26;99777.66;;;15.22;39.69
64189;BME280;50493;50.970;10.082;2023-02-20T10:43:00;99770.69;;;14.94;38.13
64189;BME280;50493;50.970;10.082;2023-02-20T10:45:30;99778.84;;;15.38;38.65
64189;BME280;50493;50.970;10.082;2023-02-20T10:48:04;99771.91;;;15.35;38.42
64189;BME280;50493;50.970;10.082;2023-02-20T10:50:34;99753.94;;;14.41;43.81
64189;BME280;50493;50.970;10.082;2023-02-20T10:53:03;99749.38;;;15.01;37.58
64189;BME280;50493;50.970;10.082;2023-02-20T10:55:38;99756.38;;;15.03;37.34
64189;BME280;50493;50.970;10.082;2023-02-20T10:58:07;99760.44;;;15.11;37.18
64189;BME280;50493;50.970;10.082;2023-02-20T11:00:39;99757.28;;;15.01;37.64
64189;BME280;50493;50.970;10.082;2023-02-20T11:03:11;99739.94;;;14.41;44.73
64189;BME280;50493;50.970;10.082;2023-02-20T11:05:39;99746.03;;;14.41;43.42
64189;BME280;50493;50.970;10.082;2023-02-20T11:08:07;99747.28;;;14.58;42.41
64189;BME280;50493;50.970;10.082;2023-02-20T11:10:32;99728.78;;;14.88;40.83
64189;BME280;50493;50.970;10.082;2023-02-20T11:13:00;99726.44;;;14.78;46.32
64189;BME280;50493;50.970;10.082;2023-02-20T11:15:28;99721.38;;;14.45;41.48
64189;BME280;50493;50.970;10.082;2023-02-20T11:17:56;99731.53;;;13.38;50.89
64189;BME280;50493;50.970;10.082;2023-02-20T11:20:41;99713.44;;;14.47;45.80
64189;BME280;50493;50.970;10.082;2023-02-20T11:23:07;99705.09;;;14.34;43.15
64189;BME280;50493;50.970;10.082;2023-02-20T11:25:33;99713.66;;;14.94;38.30
64189;BME280;50493;50.970;10.082;2023-02-20T11:28:07;99719.63;;;13.88;41.22
64189;BME280;50493;50.970;10.082;2023-02-20T11:30:35;99728.13;;;13.36;52.27
64189;BME280;50493;50.970;10.082;2023-02-20T11:33:04;99703.78;;;13.91;41.32
64189;BME280;50493;50.970;10.082;2023-02-20T11:35:37;99693.00;;;14.00;48.54
64189;BME280;50493;50.970;10.082;2023-02-20T11:38:29;99691.34;;;13.36;48.64
64189;BME280;50493;50.970;10.082;2023-02-20T11:41:04;99681.72;;;13.96;40.58
64189;BME280;50493;50.970;10.082;2023-02-20T11:43:31;99695.63;;;13.70;44.60
64189;BME280;50493;50.970;10.082;2023-02-20T11:46:06;99674.19;;;13.54;49.32
64189;BME280;50493;50.970;10.082;2023-02-20T11:48:32;99661.38;;;14.03;47.83
64189;BME280;50493;50.970;10.082;2023-02-20T11:50:58;99661.06;;;14.12;45.85
64189;BME280;50493;50.970;10.082;2023-02-20T11:53:26;99658.63;;;13.78;44.43
64189;BME280;50493;50.970;10.082;2023-02-20T11:56:07;99649.50;;;14.18;41.62
64189;BME280;50493;50.970;10.082;2023-02-20T11:58:32;99645.88;;;13.94;39.20
64189;BME280;50493;50.970;10.082;2023-02-20T12:00:58;99647.72;;;13.92;52.89
64189;BME280;50493;50.970;10.082;2023-02-20T12:03:25;99644.72;;;13.74;44.52
64189;BME280;50493;50.970;10.082;2023-02-20T12:05:52;99633.81;;;13.87;51.61
64189;BME280;50493;50.970;10.082;2023-02-20T12:08:49;99630.13;;;13.94;44.58
64189;BME280;50493;50.970;10.082;2023-02-20T12:11:18;99623.22;;;14.70;50.92
64189;BME280;50493;50.970;10.082;2023-02-20T12:13:46;99623.38;;;14.91;48.22
64189;BME280;50493;50.970;10.082;2023-02-20T12:16:27;99618.56;;;14.78;51.81
64189;BME280;50493;50.970;10.082;2023-02-20T12:19:02;99623.81;;;14.78;53.42
64189;BME280;50493;50.970;10.082;2023-02-20T12:21:36;99609.19;;;13.91;56.55
64189;BME280;50493;50.970;10.082;2023-02-20T12:24:18;99606.81;;;15.12;46.61
64189;BME280;50493;50.970;10.082;2023-02-20T12:26:51;99612.31;;;14.56;54.84
64189;BME280;50493;50.970;10.082;2023-02-20T12:29:34;99608.50;;;14.90;43.25
64189;BME280;50493;50.970;10.082;2023-02-20T12:32:11;99599.50;;;15.44;50.36
64189;BME280;50493;50.970;10.082;2023-02-20T12:34:57;99595.78;;;15.72;38.85
64189;BME280;50493;50.970;10.082;2023-02-20T12:37:32;99589.56;;;15.05;40.26
64189;BME280;50493;50.970;10.082;2023-02-20T12:40:18;99600.97;;;14.79;39.69
64189;BME280;50493;50.970;10.082;2023-02-20T12:42:49;99595.59;;;15.07;43.07
64189;BME280;50493;50.970;10.082;2023-02-20T12:45:23;99595.84;;;15.25;46.70
64189;BME280;50493;50.970;10.082;2023-02-20T12:48:03;99590.69;;;15.67;38.45
64189;BME280;50493;50.970;10.082;2023-02-20T12:50:47;99590.97;;;15.14;55.95
64189;BME280;50493;50.970;10.082;2023-02-20T12:53:32;99578.97;;;15.52;40.44
64189;BME280;50493;50.970;10.082;2023-02-20T12:56:17;99576.44;;;15.04;41.97
64189;BME280;50493;50.970;10.082;2023-02-20T12:58:48;99580.28;;;15.18;54.71
64189;BME280;50493;50.970;10.082;2023-02-20T13:01:19;99575.75;;;15.22;42.28
64189;BME280;50493;50.970;10.082;2023-02-20T13:03:57;99568.88;;;14.94;52.48
64189;BME280;50493;50.970;10.082;2023-02-20T13:06:28;99580.53;;;14.62;42.54
64189;BME280;50493;50.970;10.082;2023-02-20T13:09:03;99575.03;;;14.68;54.29
64189;BME280;50493;50.970;10.082;2023-02-20T13:11:35;99569.78;;;15.41;54.97